Historyczne dane pomiarowe

Dodano dane terminowe – wersja testowa.

Dane z okresu 1951-2019

Wersja bazy: 1.34 [2019-03-16, lista zmian], aktualizacja planowana na 2019-04-15

Dane meteo z obszaru Polski uzyskane na podstawie danych udostępnionych przez Instytut Meteorologii i Gospodarki Wodnej – Państwowy Instytut Badawczy.

 

Wybierz Datę:    

       

TemperaturaWilgotnośćWiatrCiśnienieOpadyŚniegCzas trwania zjawisk
 Stacja t tx tn tng RH VA  wxwx mslp ppp RRR   cm mm wxwxwxwxwxwxwx
1987-08-14 15.1 20.7 10.4 8.1 82.3- 7.7 1.0---- 0.0------------
1987-08-13 12.7 17.5 10.2 9.1 88.8- 7.3 1.7---- 0.0------------
1987-08-12 11.4 14.0 9.9 8.2 86.5- 7.7 5.0---- 3.7------------
1987-08-11 13.0 16.6 12.3 10.1 85.5- 5.3 3.3---- 0.6------------
1987-08-10 13.9 17.6 11.9 8.2 95.5- 8.0 2.0---- 1.8------------
1987-08-09 15.6 21.0 8.5 5.2 74.3- 4.3 1.0---- 5.3------------
1987-08-08 14.0 20.0 10.0 5.9 67.3- 4.0 2.7---- 0.3------------
1987-08-07 13.0 17.6 9.0 5.1 72.0- 5.3 2.7---- 0.0------------
1987-08-06 11.6 17.0 6.1 3.2 86.5- 5.0 0.7---- 7.2------------
1987-08-05 13.2 18.0 7.0 3.8 76.8- 4.0 2.3---- 0.0------------
1987-08-04 13.4 19.7 6.0 3.7 81.8- 7.7 3.0---- 1.9------------
1987-08-03 12.7 17.4 8.8 5.7 80.8- 7.0 3.0---- 0.0------------
1987-08-02 15.2 18.9 14.3 13.6 80.0- 5.0 1.7---- 1.9------------
1987-08-01 16.0 20.7 11.0 7.7 78.3- 7.0 3.0---- 3.9------------
1987-07-31 16.0 19.9 11.5 8.6 89.3- 7.0 0.7---- 1.1------------
1987-07-30 15.1 21.2 9.5 7.0 83.0- 6.0 0.0---- 0.0------------
1987-07-29 12.7 17.5 9.5 6.6 90.8- 7.0 0.7---- 3.1------------
1987-07-28 14.2 19.5 10.8 8.2 78.3- 6.0 2.0---- 1.2------------
1987-07-27 12.6 16.0 9.0 8.0 77.3- 3.7 3.7---- 1.3------------
1987-07-26 14.5 19.9 12.2 9.1 87.3- 8.0 0.0---- 7.4------------
1987-07-25 17.2 21.4 13.0 9.6 84.3- 5.0 0.7---- 1.0------------
1987-07-24 19.7 24.8 14.2 12.6 87.3- 5.7 1.0---- 0.0------------
1987-07-23 21.6 27.8 17.0 14.6 83.0- 6.3 1.7---- 0.0------------
1987-07-22 21.0 26.3 15.5 13.2 86.3- 6.7 0.7---- 0.5------------
1987-07-21 20.3 25.8 16.5 14.0 80.8- 5.7 0.0---- 0.0------------
1987-07-20 20.2 26.8 15.0 13.4 73.0- 7.0 2.0---- 8.3------------
1987-07-19 18.6 24.3 11.8 8.9 68.0- 3.0 4.0---- 0.0------------
1987-07-18 20.1 25.4 15.5 13.9 70.3- 3.7 3.0---- 0.0------------
1987-07-17 20.0 26.1 11.8 8.1 66.5- 5.0 3.0---- 0.0------------
1987-07-16 17.7 24.0 8.3 6.0 72.0- 4.7 0.0---- 0.0------------
1987-07-15 16.2 21.4 9.0 5.2 81.0- 3.3 0.0---- 0.0------------
1987-07-14 14.1 18.3 9.5 6.2 79.8- 4.3 3.3---- 0.2------------
1987-07-13 16.3 20.4 12.4 11.0 82.5- 6.7 4.3---- 1.0------------
1987-07-12 16.1 21.0 12.4 11.6 94.0- 8.0 1.0---- 17.2------------
1987-07-11 13.3 17.2 9.5 6.0 78.0- 7.0 2.0---- 1.5------------
1987-07-10 14.4 18.9 11.4 8.0 76.3- 4.0 3.7---- 0.1------------
1987-07-09 17.7 24.8 15.6 11.2 84.5- 8.0 2.3---- 4.8------------
1987-07-08 21.6 28.5 12.5 7.7 60.0- 2.0 3.0---- 0.0------------
1987-07-07 19.3 26.2 8.5 5.2 68.8- 1.7 0.7---- 0.0------------
1987-07-06 16.5 22.8 5.6 2.3 66.3- 2.3 1.0---- 0.0------------
1987-07-05 16.1 22.3 9.7 5.5 72.3- 3.7 1.7---- 0.0------------
1987-07-04 16.6 22.9 7.9 4.8 69.0- 2.7 1.3---- 0.0------------
1987-07-03 17.5 22.2 10.0 6.2 66.5- 1.0 2.0---- 0.0------------
1987-07-02 20.0 27.4 17.5 15.1 70.8- 5.3 2.0---- 0.0------------
1987-07-01 24.8 30.7 17.5 13.1 72.3- 2.3 2.3---- 0.0------------
1987-06-30 21.9 25.8 19.4 17.0 81.5- 3.7 2.0---- 0.0------------
1987-06-29 16.6 23.0 6.3 3.4 72.5- 4.0 1.7---- 0.0------------
1987-06-28 15.3 20.4 12.7 9.0 90.8- 5.7 1.7---- 4.9------------
1987-06-27 17.9 20.4 14.8 10.1 79.5- 7.7 1.7---- 0.1------------
1987-06-26 15.5 21.0 7.5 3.7 71.3- 6.3 2.3---- 0.0------------
1987-06-25 12.0 16.9 8.5 4.9 92.8- 7.0 1.0---- 15.7------------
1987-06-24 15.6 20.0 13.0 9.6 79.3- 3.7 0.7---- 4.4------------
1987-06-23 17.5 24.5 9.4 5.9 71.8- 4.0 1.3---- 0.0------------
1987-06-22 17.5 23.4 9.3 5.8 75.3- 4.3 0.0---- 0.0------------
1987-06-21 16.7 23.0 9.4 6.9 76.5- 3.7 0.7---- 0.2------------
1987-06-20 14.5 21.1 4.2 1.6 69.8- 1.7 1.0---- 0.1------------
1987-06-19 12.5 17.2 7.5 3.5 76.5- 3.7 1.7---- 0.0------------
1987-06-18 11.6 17.6 3.4 1.3 75.0- 6.3 1.3---- 0.0------------
1987-06-17 13.1 15.5 11.0 10.0 76.8- 7.0 1.7---- 0.9------------
1987-06-16 19.7 25.7 11.6 11.1 66.0- 7.3 8.7---- 0.0------------
417.5 ms

 

Źródłem pochodzenia danych jest Instytut Meteorologii i Gospodarki Wodnej – Państwowy Instytut Badawczy. Dane Instytutu Meteorologii i Gospodarki Wodnej – Państwowego Instytutu Badawczego zostały przetworzone.

Dane źródłowe można odnaleźć na stronie https://dane.imgw.pl